Time;durP1;ratioP1;P1;durP2;ratioP2;P2;SDS_P1;SDS_P2;PMS_P1;PMS_P2;Temp;Humidity;BMP_temperature;BMP_pressure;BME280_temperature;BME280_humidity;BME280_pressure;Samples;Min_cycle;Max_cycle;Signal;HPM_P1;HPM_P2
2024/01/15 00:00:26;;;;;;;7.20;4.20;;;0.20;96.90;;;;;;5075961;28;20204;-76
2024/01/15 00:02:53;;;;;;;6.00;3.87;;;0.20;96.70;;;;;;5079252;28;20200;-76
2024/01/15 00:05:20;;;;;;;6.40;4.03;;;0.20;97.00;;;;;;5085761;28;20238;-76
2024/01/15 00:07:48;;;;;;;8.30;4.73;;;0.30;96.80;;;;;;5079988;28;20197;-77
2024/01/15 00:10:15;;;;;;;7.43;4.57;;;0.40;96.80;;;;;;5073258;28;20274;-77
2024/01/15 00:12:42;;;;;;;7.17;4.50;;;0.40;96.70;;;;;;5082494;28;20198;-77
2024/01/15 00:15:09;;;;;;;6.83;4.43;;;0.50;97.00;;;;;;5089487;28;20224;-76
2024/01/15 00:17:36;;;;;;;7.60;4.23;;;0.50;96.70;;;;;;5077544;28;20214;-76
2024/01/15 00:20:04;;;;;;;6.80;4.27;;;0.60;96.50;;;;;;5086059;28;20291;-77
2024/01/15 00:22:31;;;;;;;11.57;4.53;;;0.60;96.10;;;;;;5079804;28;20285;-78
2024/01/15 00:25:00;;;;;;;6.63;4.53;;;0.60;96.20;;;;;;5079197;28;20866;-78
2024/01/15 00:27:26;;;;;;;9.33;5.60;;;0.60;96.00;;;;;;5080658;28;20201;-77
2024/01/15 00:29:54;;;;;;;7.30;4.67;;;0.60;96.00;;;;;;5079890;28;20287;-77
2024/01/15 00:32:21;;;;;;;9.37;5.37;;;0.50;95.80;;;;;;5083311;28;20222;-77
2024/01/15 00:34:48;;;;;;;8.10;4.87;;;0.50;95.90;;;;;;5083159;28;20693;-76
2024/01/15 00:37:15;;;;;;;9.73;5.50;;;0.60;95.90;;;;;;5075405;28;20201;-77
2024/01/15 00:39:42;;;;;;;8.13;5.37;;;0.60;95.70;;;;;;5079419;28;20197;-77
2024/01/15 00:42:10;;;;;;;8.90;5.43;;;0.60;95.60;;;;;;5075819;28;20582;-77
2024/01/15 00:44:37;;;;;;;9.63;5.50;;;0.70;95.60;;;;;;5082915;28;20197;-77
2024/01/15 00:47:04;;;;;;;9.70;5.87;;;0.80;95.50;;;;;;5077627;28;20199;-79
2024/01/15 00:49:30;;;;;;;9.50;5.83;;;0.80;95.50;;;;;;5079101;28;20215;-77
2024/01/15 00:51:57;;;;;;;10.93;6.37;;;0.80;95.50;;;;;;5083459;28;20220;-78
2024/01/15 00:54:24;;;;;;;8.67;5.67;;;0.80;95.20;;;;;;5078812;28;20257;-77
2024/01/15 00:56:51;;;;;;;9.10;5.83;;;0.90;94.80;;;;;;5080864;28;20193;-78
2024/01/15 00:59:20;;;;;;;10.20;6.30;;;0.80;94.70;;;;;;5080890;28;20208;-77
2024/01/15 01:01:47;;;;;;;9.80;6.13;;;0.80;94.60;;;;;;5087877;28;20200;-79
2024/01/15 01:04:14;;;;;;;8.87;5.93;;;0.80;94.50;;;;;;5078793;28;20322;-77
2024/01/15 01:06:41;;;;;;;12.07;6.00;;;0.80;94.20;;;;;;5084725;28;20201;-77
2024/01/15 01:09:08;;;;;;;9.23;6.00;;;0.80;94.20;;;;;;5084591;28;20201;-77
2024/01/15 01:11:34;;;;;;;9.33;5.97;;;0.70;94.20;;;;;;5083238;28;20200;-80
2024/01/15 01:14:01;;;;;;;9.27;6.37;;;0.70;94.20;;;;;;5082932;28;20197;-77
2024/01/15 01:16:30;;;;;;;10.37;6.50;;;0.70;93.30;;;;;;5077106;28;20683;-77
2024/01/15 01:18:57;;;;;;;13.97;7.60;;;0.70;93.10;;;;;;5087098;28;20240;-77
2024/01/15 01:21:24;;;;;;;12.00;7.60;;;0.50;93.00;;;;;;5081995;28;20212;-77
2024/01/15 01:23:51;;;;;;;11.10;7.27;;;0.30;92.90;;;;;;5084771;28;20202;-77
2024/01/15 01:26:18;;;;;;;16.57;7.90;;;0.20;93.00;;;;;;5078092;28;20207;-76
2024/01/15 01:28:46;;;;;;;13.70;8.00;;;0.10;92.90;;;;;;5077002;28;20216;-77
2024/01/15 01:31:13;;;;;;;12.23;7.70;;;0.00;92.60;;;;;;5080239;28;20208;-77
2024/01/15 01:33:41;;;;;;;12.67;7.77;;;-0.10;92.50;;;;;;5080892;28;20553;-76
2024/01/15 01:36:09;;;;;;;12.00;7.53;;;-0.20;92.20;;;;;;5084246;28;20230;-77
2024/01/15 01:38:36;;;;;;;14.07;8.20;;;-0.30;92.00;;;;;;5089937;28;20198;-77
2024/01/15 01:41:03;;;;;;;12.77;8.03;;;-0.30;91.70;;;;;;5086286;28;20323;-76
2024/01/15 01:43:30;;;;;;;16.47;8.30;;;-0.30;91.40;;;;;;5082507;28;20193;-77
2024/01/15 01:45:59;;;;;;;14.60;7.87;;;-0.40;91.50;;;;;;5083137;28;20242;-76
2024/01/15 01:48:26;;;;;;;12.30;7.47;;;-0.50;91.20;;;;;;5084182;28;20288;-77
2024/01/15 01:51:03;;;;;;;15.37;7.67;;;-0.50;91.20;;;;;;5083776;28;20535;-77
2024/01/15 01:53:30;;;;;;;13.57;7.57;;;-0.60;91.20;;;;;;5080364;28;20197;-77
2024/01/15 01:55:58;;;;;;;15.00;7.30;;;-0.60;91.30;;;;;;5090136;28;20573;-76
2024/01/15 01:58:25;;;;;;;14.93;8.17;;;-0.70;91.30;;;;;;5078937;28;20204;-76
2024/01/15 02:00:52;;;;;;;11.80;7.57;;;-0.70;91.40;;;;;;5082497;28;20193;-76
2024/01/15 02:03:19;;;;;;;9.87;6.47;;;-0.70;92.00;;;;;;5079595;28;20678;-76
2024/01/15 02:05:48;;;;;;;13.17;7.63;;;-0.70;91.40;;;;;;5079680;28;20209;-77
2024/01/15 02:08:17;;;;;;;12.23;7.60;;;-0.70;91.60;;;;;;5084291;28;20197;-76
2024/01/15 02:10:43;;;;;;;12.73;7.23;;;-0.70;91.60;;;;;;5085384;28;20207;-76
2024/01/15 02:13:10;;;;;;;13.00;6.93;;;-0.80;91.50;;;;;;5083691;28;20566;-79
2024/01/15 02:15:37;;;;;;;13.77;7.57;;;-0.80;91.80;;;;;;5083438;28;20215;-77
2024/01/15 02:18:07;;;;;;;12.53;7.30;;;-0.80;91.80;;;;;;5081645;28;20200;-77
2024/01/15 02:20:34;;;;;;;13.93;7.37;;;-0.90;91.80;;;;;;5082761;28;20228;-76
2024/01/15 02:23:11;;;;;;;12.90;7.30;;;-0.80;91.60;;;;;;5081400;28;20207;-77
2024/01/15 02:25:43;;;;;;;12.33;6.83;;;-0.80;91.40;;;;;;5081594;28;20200;-77
2024/01/15 02:28:12;;;;;;;13.20;7.27;;;-0.70;91.30;;;;;;5081797;28;20209;-77
2024/01/15 02:30:40;;;;;;;14.87;7.47;;;-0.70;91.30;;;;;;5084703;28;20197;-77
2024/01/15 02:33:07;;;;;;;14.70;7.90;;;-0.70;91.50;;;;;;5080991;28;20206;-77
2024/01/15 02:35:36;;;;;;;14.77;7.53;;;-0.70;91.40;;;;;;5085840;28;20231;-77
2024/01/15 02:38:03;;;;;;;11.43;7.23;;;-0.70;91.30;;;;;;5082986;28;20224;-77
2024/01/15 02:40:31;;;;;;;12.77;7.30;;;-0.60;91.50;;;;;;5076596;28;20192;-76
2024/01/15 02:42:58;;;;;;;13.73;7.37;;;-0.60;91.40;;;;;;5080496;28;20216;-77
2024/01/15 02:45:24;;;;;;;13.47;7.50;;;-0.50;91.60;;;;;;5084377;28;20215;-77
2024/01/15 02:47:51;;;;;;;13.47;7.60;;;-0.50;91.70;;;;;;5082757;28;20201;-77
2024/01/15 02:50:18;;;;;;;12.33;7.43;;;-0.50;91.60;;;;;;5079106;28;20640;-76
2024/01/15 02:52:45;;;;;;;11.07;7.40;;;-0.50;91.50;;;;;;5085515;28;20205;-77
2024/01/15 02:55:11;;;;;;;11.90;7.27;;;-0.40;91.50;;;;;;5077786;28;20220;-77
2024/01/15 02:57:40;;;;;;;11.57;7.00;;;-0.50;91.60;;;;;;5073008;28;20564;-76
2024/01/15 03:00:08;;;;;;;13.87;7.20;;;-0.40;91.20;;;;;;5082385;28;20208;-77
2024/01/15 03:02:39;;;;;;;11.97;7.57;;;-0.40;91.10;;;;;;5081005;28;20204;-76
2024/01/15 03:05:06;;;;;;;12.43;7.47;;;-0.40;91.00;;;;;;5084111;28;20218;-79
2024/01/15 03:07:33;;;;;;;13.27;7.63;;;-0.40;91.10;;;;;;5085389;28;20203;-77
2024/01/15 03:10:00;;;;;;;11.23;7.20;;;-0.50;91.20;;;;;;5086880;28;20209;-77
2024/01/15 03:12:27;;;;;;;13.97;7.63;;;-0.50;91.20;;;;;;5080552;28;20200;-76
2024/01/15 03:14:55;;;;;;;13.63;7.23;;;-0.50;91.20;;;;;;5077006;28;20204;-77
2024/01/15 03:17:21;;;;;;;11.63;6.40;;;-0.50;91.50;;;;;;5089178;28;20204;-77
2024/01/15 03:19:49;;;;;;;11.60;6.90;;;-0.50;91.20;;;;;;5080975;28;20196;-77
2024/01/15 03:22:16;;;;;;;12.77;6.77;;;-0.40;90.80;;;;;;5079408;28;20227;-77
2024/01/15 03:24:43;;;;;;;10.17;6.07;;;-0.40;90.70;;;;;;5082401;28;20561;-77
2024/01/15 03:27:09;;;;;;;9.80;6.57;;;-0.50;90.60;;;;;;5079009;28;20208;-76
2024/01/15 03:29:36;;;;;;;11.80;6.47;;;-0.50;90.70;;;;;;5079888;28;20292;-77
2024/01/15 03:32:05;;;;;;;11.10;6.27;;;-0.50;90.90;;;;;;5082956;28;20196;-77
2024/01/15 03:34:31;;;;;;;10.83;6.67;;;-0.60;91.20;;;;;;5085431;28;20193;-77
2024/01/15 03:36:59;;;;;;;11.33;6.37;;;-0.50;90.80;;;;;;5083828;28;20726;-76
2024/01/15 03:39:25;;;;;;;10.10;6.13;;;-0.50;90.60;;;;;;5082050;28;20202;-77
2024/01/15 03:41:52;;;;;;;10.27;6.00;;;-0.50;90.30;;;;;;5081527;28;20192;-77
2024/01/15 03:44:19;;;;;;;11.13;5.80;;;-0.50;90.40;;;;;;5082601;28;20206;-77
2024/01/15 03:46:46;;;;;;;10.10;5.93;;;-0.40;90.30;;;;;;5081382;28;20202;-77
2024/01/15 03:49:14;;;;;;;11.53;6.53;;;-0.40;90.60;;;;;;5078176;28;20203;-77
2024/01/15 03:51:41;;;;;;;10.00;6.27;;;-0.50;90.60;;;;;;5084382;28;20199;-78
2024/01/15 03:54:07;;;;;;;9.73;6.07;;;-0.50;90.90;;;;;;5089559;28;20202;-79
2024/01/15 03:56:35;;;;;;;11.40;6.60;;;-0.60;91.00;;;;;;5088787;28;20688;-78
2024/01/15 03:59:02;;;;;;;11.27;6.70;;;-0.50;90.50;;;;;;5081336;28;20657;-77
2024/01/15 04:01:29;;;;;;;12.03;6.53;;;-0.60;90.50;;;;;;5080243;28;20652;-78
2024/01/15 04:03:56;;;;;;;11.20;6.77;;;-0.50;90.40;;;;;;5079581;28;20212;-76
2024/01/15 04:06:24;;;;;;;13.67;6.50;;;-0.40;89.60;;;;;;5074745;28;20290;-77
2024/01/15 04:08:51;;;;;;;11.50;6.60;;;-0.40;89.50;;;;;;5084459;28;20195;-76
2024/01/15 04:11:17;;;;;;;12.07;5.77;;;-0.50;90.00;;;;;;5084316;28;20210;-76
2024/01/15 04:13:44;;;;;;;9.47;5.93;;;-0.50;90.00;;;;;;5084381;28;20203;-76
2024/01/15 04:16:11;;;;;;;10.73;6.27;;;-0.50;89.90;;;;;;5070948;28;20590;-76
2024/01/15 04:18:37;;;;;;;9.60;5.77;;;-0.40;89.10;;;;;;5084248;28;20207;-76
2024/01/15 04:21:05;;;;;;;10.13;6.20;;;-0.40;89.10;;;;;;5087234;28;20209;-77
2024/01/15 04:23:33;;;;;;;11.10;6.20;;;-0.40;88.70;;;;;;5083473;28;20584;-76
2024/01/15 04:26:00;;;;;;;11.83;6.33;;;-0.40;89.50;;;;;;5078786;28;20201;-77
2024/01/15 04:28:27;;;;;;;11.67;6.17;;;-0.40;88.90;;;;;;5073570;28;20211;-76
2024/01/15 04:30:54;;;;;;;8.90;5.50;;;-0.40;88.70;;;;;;5085289;28;20218;-77
2024/01/15 04:33:21;;;;;;;10.70;5.83;;;-0.50;89.10;;;;;;5084645;28;20195;-76
2024/01/15 04:35:47;;;;;;;8.93;5.50;;;-0.40;88.80;;;;;;5080684;28;20696;-77
2024/01/15 04:38:14;;;;;;;9.53;5.90;;;-0.40;87.80;;;;;;5077839;28;20204;-77
2024/01/15 04:40:42;;;;;;;9.30;5.57;;;-0.40;87.70;;;;;;5080490;28;20197;-77
2024/01/15 04:43:09;;;;;;;9.40;5.50;;;-0.40;87.90;;;;;;5080640;28;20283;-78
2024/01/15 04:45:36;;;;;;;8.30;5.47;;;-0.40;87.70;;;;;;5084286;28;20234;-77
2024/01/15 04:48:03;;;;;;;8.77;5.57;;;-0.40;87.00;;;;;;5076595;28;20195;-76
2024/01/15 04:50:30;;;;;;;9.40;5.87;;;-0.40;88.00;;;;;;5077705;28;20211;-77
2024/01/15 04:52:56;;;;;;;10.07;5.63;;;-0.50;88.70;;;;;;5085224;28;20565;-77
2024/01/15 04:55:23;;;;;;;10.13;5.77;;;-0.50;89.30;;;;;;5086180;28;20193;-76
2024/01/15 04:57:51;;;;;;;9.27;5.23;;;-0.50;88.90;;;;;;5089048;28;20247;-77
2024/01/15 05:00:19;;;;;;;9.63;5.77;;;-0.40;89.30;;;;;;5083381;28;20200;-77
2024/01/15 05:02:46;;;;;;;10.63;5.27;;;-0.50;89.20;;;;;;5089468;28;20202;-76
2024/01/15 05:05:13;;;;;;;8.53;5.43;;;-0.40;88.40;;;;;;5082098;28;20223;-77
2024/01/15 05:07:40;;;;;;;9.00;5.67;;;-0.40;87.80;;;;;;5080361;28;20223;-76
2024/01/15 05:10:08;;;;;;;8.80;5.63;;;-0.40;89.00;;;;;;5082944;28;20201;-76
2024/01/15 05:12:35;;;;;;;9.40;5.30;;;-0.50;89.30;;;;;;5083939;28;20205;-77
2024/01/15 05:15:04;;;;;;;11.33;5.47;;;-0.50;89.20;;;;;;5082550;28;20201;-76
2024/01/15 05:17:31;;;;;;;11.67;5.20;;;-0.50;89.40;;;;;;5081138;28;20221;-76
2024/01/15 05:19:57;;;;;;;9.17;5.00;;;-0.50;89.10;;;;;;5084119;28;20207;-77
2024/01/15 05:22:24;;;;;;;9.10;5.30;;;-0.40;89.00;;;;;;5084730;28;20204;-76
2024/01/15 05:24:51;;;;;;;8.27;5.30;;;-0.40;88.60;;;;;;5085783;28;20200;-76
2024/01/15 05:27:18;;;;;;;8.17;5.30;;;-0.50;88.60;;;;;;5087915;28;20683;-76
2024/01/15 05:29:45;;;;;;;10.57;4.87;;;-0.40;88.20;;;;;;5084768;28;20211;-86
2024/01/15 05:32:13;;;;;;;8.90;5.30;;;-0.40;88.70;;;;;;5085716;28;20200;-76
2024/01/15 05:34:40;;;;;;;10.43;5.00;;;-0.40;88.80;;;;;;5086213;28;20200;-75
2024/01/15 05:37:06;;;;;;;7.73;5.00;;;-0.50;89.30;;;;;;5083494;28;20239;-80
2024/01/15 05:39:33;;;;;;;7.77;4.57;;;-0.40;89.00;;;;;;5085285;28;20653;-75
2024/01/15 05:42:00;;;;;;;7.47;4.93;;;-0.40;88.60;;;;;;5088309;28;20195;-75
2024/01/15 05:44:27;;;;;;;6.70;4.50;;;-0.40;87.80;;;;;;5087623;28;20196;-76
2024/01/15 05:46:55;;;;;;;8.70;5.20;;;-0.40;88.50;;;;;;5081051;28;20208;-76
2024/01/15 05:49:23;;;;;;;9.73;5.57;;;-0.40;88.30;;;;;;5086062;28;20645;-77
2024/01/15 05:51:51;;;;;;;9.47;5.20;;;-0.50;88.20;;;;;;5087065;28;20200;-76
2024/01/15 05:54:19;;;;;;;10.33;5.83;;;-0.40;88.20;;;;;;5081785;28;20196;-76
2024/01/15 05:56:46;;;;;;;9.03;5.10;;;-0.40;88.30;;;;;;5081920;28;20217;-76
2024/01/15 05:59:13;;;;;;;8.23;5.07;;;-0.40;87.70;;;;;;5091830;28;20200;-76
2024/01/15 06:01:39;;;;;;;10.23;5.20;;;-0.40;87.50;;;;;;5080562;28;20199;-76
2024/01/15 06:04:06;;;;;;;6.83;4.67;;;-0.40;88.10;;;;;;5079123;28;20254;-76
2024/01/15 06:06:34;;;;;;;10.23;4.87;;;-0.40;87.00;;;;;;5077943;28;20594;-76
2024/01/15 06:09:05;;;;;;;10.73;5.03;;;-0.40;87.10;;;;;;5079461;28;20574;-89
2024/01/15 06:11:32;;;;;;;7.73;4.43;;;-0.40;86.60;;;;;;5082402;28;20390;-77
2024/01/15 06:14:00;;;;;;;8.93;5.03;;;-0.50;87.70;;;;;;5086532;28;20197;-76
2024/01/15 06:16:27;;;;;;;12.27;5.33;;;-0.40;87.10;;;;;;5088031;28;20840;-76
2024/01/15 06:18:54;;;;;;;6.67;4.33;;;-0.40;86.10;;;;;;5085108;28;20220;-76
2024/01/15 06:21:20;;;;;;;8.20;5.20;;;-0.40;85.60;;;;;;5079046;28;20212;-76
2024/01/15 06:23:48;;;;;;;10.07;5.03;;;-0.50;85.50;;;;;;5076356;28;20202;-78
2024/01/15 06:26:16;;;;;;;8.87;5.53;;;-0.50;85.90;;;;;;5077462;28;20212;-75
2024/01/15 06:28:42;;;;;;;8.47;5.03;;;-0.50;86.40;;;;;;5080142;28;20213;-75
2024/01/15 06:31:09;;;;;;;7.63;4.60;;;-0.50;86.30;;;;;;5090625;28;20204;-77
2024/01/15 06:33:36;;;;;;;7.57;4.47;;;-0.50;85.50;;;;;;5085103;28;20188;-76
2024/01/15 06:36:10;;;;;;;8.77;5.30;;;-0.50;86.30;;;;;;5081153;28;20196;-76
2024/01/15 06:38:37;;;;;;;6.57;4.50;;;-0.50;86.30;;;;;;5090320;28;20208;-75
2024/01/15 06:41:05;;;;;;;8.80;4.80;;;-0.40;85.60;;;;;;5081003;28;20200;-76
2024/01/15 06:43:32;;;;;;;7.40;4.67;;;-0.40;85.50;;;;;;5084455;28;20204;-76
2024/01/15 06:45:59;;;;;;;7.97;4.60;;;-0.40;85.60;;;;;;5076229;28;20219;-76
2024/01/15 06:48:28;;;;;;;7.90;4.67;;;-0.40;85.70;;;;;;5087516;28;20216;-76
2024/01/15 06:50:55;;;;;;;8.13;4.70;;;-0.40;85.60;;;;;;5080758;28;20644;-76
2024/01/15 06:53:22;;;;;;;8.27;4.80;;;-0.40;85.60;;;;;;5082467;28;20195;-76
2024/01/15 06:55:51;;;;;;;7.43;4.53;;;-0.50;85.50;;;;;;5062641;28;20651;-76
2024/01/15 06:58:19;;;;;;;7.30;4.73;;;-0.40;85.50;;;;;;5087035;28;20228;-76
2024/01/15 07:00:50;;;;;;;9.13;5.47;;;-0.50;85.50;;;;;;5083839;28;20199;-77
2024/01/15 07:03:17;;;;;;;8.40;4.97;;;-0.50;85.60;;;;;;5086663;28;20204;-75
2024/01/15 07:05:44;;;;;;;7.63;4.70;;;-0.50;85.50;;;;;;5085330;28;20303;-76
2024/01/15 07:08:11;;;;;;;8.13;4.40;;;-0.40;85.50;;;;;;5088680;28;20231;-75
2024/01/15 07:10:38;;;;;;;6.87;4.30;;;-0.40;85.60;;;;;;5087406;28;20196;-76
2024/01/15 07:13:05;;;;;;;9.20;5.10;;;-0.30;85.60;;;;;;5081823;28;20197;-76
2024/01/15 07:15:33;;;;;;;7.10;4.13;;;-0.40;85.50;;;;;;5077991;28;20209;-76
2024/01/15 07:18:00;;;;;;;8.67;5.23;;;-0.40;85.60;;;;;;5088794;28;20679;-75
2024/01/15 07:20:27;;;;;;;7.83;4.93;;;-0.40;86.40;;;;;;5069847;28;20200;-76
2024/01/15 07:22:54;;;;;;;9.20;5.43;;;-0.40;85.50;;;;;;5082627;28;20209;-75
2024/01/15 07:25:20;;;;;;;8.20;5.20;;;-0.40;85.60;;;;;;5082590;28;20204;-76
2024/01/15 07:27:47;;;;;;;9.10;4.90;;;-0.30;85.60;;;;;;5082644;28;20211;-76
2024/01/15 07:30:15;;;;;;;9.27;5.13;;;-0.30;85.60;;;;;;5081593;28;20687;-76
2024/01/15 07:32:43;;;;;;;7.90;5.00;;;-0.30;85.60;;;;;;5079656;28;20259;-75
2024/01/15 07:35:10;;;;;;;8.87;5.20;;;-0.30;85.60;;;;;;5084068;28;20231;-76
2024/01/15 07:37:37;;;;;;;8.33;4.90;;;-0.30;85.90;;;;;;5079981;28;20228;-76
2024/01/15 07:40:06;;;;;;;9.80;5.30;;;-0.20;85.70;;;;;;5077044;28;20197;-76
2024/01/15 07:42:33;;;;;;;9.50;4.93;;;-0.30;85.90;;;;;;5079773;28;20201;-76
2024/01/15 07:45:00;;;;;;;9.23;5.23;;;-0.20;85.70;;;;;;5076516;28;20207;-76
2024/01/15 07:47:27;;;;;;;9.57;4.93;;;-0.20;85.70;;;;;;5083716;28;20269;-76
2024/01/15 07:49:56;;;;;;;9.33;5.30;;;-0.20;87.20;;;;;;5080495;28;20276;-75
2024/01/15 07:52:23;;;;;;;8.30;5.43;;;-0.10;88.00;;;;;;5082440;28;20616;-76
2024/01/15 07:54:50;;;;;;;9.00;4.97;;;-0.10;87.80;;;;;;5078873;28;20204;-76
2024/01/15 07:57:16;;;;;;;8.00;5.70;;;0.00;85.90;;;;;;5077516;28;20685;-76
2024/01/15 07:59:43;;;;;;;10.00;5.30;;;0.00;86.10;;;;;;5082899;28;20208;-76
2024/01/15 08:02:11;;;;;;;9.53;5.60;;;0.00;85.80;;;;;;5081004;28;20204;-77
2024/01/15 08:04:38;;;;;;;7.57;5.10;;;0.10;85.90;;;;;;5085564;28;20217;-76
2024/01/15 08:07:06;;;;;;;9.23;5.13;;;0.10;85.90;;;;;;5079286;28;20208;-76
2024/01/15 08:09:33;;;;;;;7.33;4.83;;;0.20;85.90;;;;;;5081470;28;20205;-76
2024/01/15 08:12:01;;;;;;;8.40;5.60;;;0.10;85.90;;;;;;5078241;28;20201;-76
2024/01/15 08:14:28;;;;;;;8.60;5.63;;;0.20;86.00;;;;;;5067146;28;20200;-76
2024/01/15 08:16:55;;;;;;;9.10;5.77;;;0.20;85.90;;;;;;5085097;28;20645;-76
2024/01/15 08:19:21;;;;;;;9.80;6.07;;;0.20;86.00;;;;;;5073702;28;20212;-76
2024/01/15 08:21:48;;;;;;;8.37;5.10;;;0.20;85.90;;;;;;5083943;28;20197;-77
2024/01/15 08:24:17;;;;;;;8.90;5.20;;;0.20;85.90;;;;;;5082477;28;20645;-76
2024/01/15 08:26:47;;;;;;;8.13;5.40;;;0.20;85.90;;;;;;5084617;28;20249;-76
2024/01/15 08:29:13;;;;;;;9.90;5.27;;;0.20;86.00;;;;;;5084581;28;20672;-79
2024/01/15 08:31:40;;;;;;;8.93;5.17;;;0.10;85.90;;;;;;5076419;28;20194;-77
2024/01/15 08:34:08;;;;;;;9.40;5.40;;;0.20;87.50;;;;;;5085311;28;20288;-75
2024/01/15 08:36:36;;;;;;;8.60;5.00;;;0.20;85.90;;;;;;5073599;28;20265;-76
2024/01/15 08:39:03;;;;;;;8.67;4.50;;;0.20;85.90;;;;;;5080652;28;20216;-76
2024/01/15 08:41:32;;;;;;;9.87;5.37;;;0.30;86.00;;;;;;5080064;28;20207;-76
2024/01/15 08:43:59;;;;;;;8.20;4.70;;;0.30;86.00;;;;;;5084899;28;20204;-76
2024/01/15 08:46:26;;;;;;;9.87;5.43;;;0.30;86.00;;;;;;5081620;28;20204;-75
2024/01/15 08:48:52;;;;;;;8.27;4.80;;;0.20;86.00;;;;;;5081436;28;20587;-76
2024/01/15 08:51:19;;;;;;;8.17;5.30;;;0.20;85.90;;;;;;5077547;28;20215;-75
2024/01/15 08:53:46;;;;;;;6.40;4.70;;;0.10;85.90;;;;;;5079793;28;20258;-76
2024/01/15 08:56:13;;;;;;;7.20;4.60;;;0.10;85.90;;;;;;5081836;28;20204;-76
2024/01/15 08:58:41;;;;;;;10.20;5.60;;;0.10;85.90;;;;;;5081720;28;20227;-76
2024/01/15 09:01:08;;;;;;;8.70;5.30;;;0.20;85.90;;;;;;5077750;28;20211;-76
2024/01/15 09:03:35;;;;;;;11.03;5.63;;;0.20;86.60;;;;;;5083535;28;20201;-76
2024/01/15 09:06:02;;;;;;;10.63;5.73;;;0.20;86.00;;;;;;5078689;28;20227;-76
2024/01/15 09:08:28;;;;;;;9.53;5.70;;;0.20;86.10;;;;;;5083187;28;20199;-75
2024/01/15 09:10:55;;;;;;;7.70;4.73;;;0.20;85.90;;;;;;5078520;28;20193;-76
2024/01/15 09:13:22;;;;;;;9.93;5.47;;;0.30;86.00;;;;;;5081452;28;20204;-76
2024/01/15 09:15:50;;;;;;;8.73;5.03;;;0.40;86.00;;;;;;5085421;28;20196;-76
2024/01/15 09:18:17;;;;;;;8.13;5.03;;;0.50;85.00;;;;;;5075867;28;20212;-76
2024/01/15 09:20:43;;;;;;;9.10;5.37;;;0.50;86.90;;;;;;5081491;28;20196;-76
2024/01/15 09:23:10;;;;;;;8.37;5.13;;;0.50;86.10;;;;;;5081068;28;20201;-75
2024/01/15 09:25:43;;;;;;;8.80;5.10;;;0.50;85.30;;;;;;5084554;28;20197;-75
2024/01/15 09:28:11;;;;;;;9.93;5.40;;;0.50;84.30;;;;;;5084859;28;20227;-76
2024/01/15 09:30:38;;;;;;;9.10;5.23;;;0.50;83.80;;;;;;5084724;28;20208;-76
2024/01/15 09:33:06;;;;;;;8.17;5.00;;;0.60;83.20;;;;;;5079858;28;20685;-76
2024/01/15 09:35:33;;;;;;;8.13;4.57;;;0.60;84.10;;;;;;5079798;28;20197;-78
2024/01/15 09:38:00;;;;;;;8.03;4.90;;;0.70;81.90;;;;;;5083576;28;20224;-76
2024/01/15 09:40:32;;;;;;;6.23;4.33;;;0.70;82.10;;;;;;5083948;28;20193;-77
2024/01/15 09:43:00;;;;;;;7.23;4.60;;;0.80;81.40;;;;;;5079942;28;20654;-76
2024/01/15 09:45:27;;;;;;;6.77;4.53;;;0.70;80.00;;;;;;5081526;28;20193;-76
2024/01/15 09:47:54;;;;;;;8.60;4.43;;;0.80;80.90;;;;;;5078743;28;20201;-75
2024/01/15 09:50:22;;;;;;;8.13;4.70;;;0.80;80.60;;;;;;5073826;28;20568;-75
2024/01/15 09:52:50;;;;;;;6.27;4.30;;;0.90;80.20;;;;;;5085908;28;20673;-75
2024/01/15 09:55:25;;;;;;;9.83;4.60;;;1.10;77.80;;;;;;5085321;28;20753;-76
2024/01/15 09:57:55;;;;;;;11.23;4.47;;;1.10;77.50;;;;;;5079628;28;20225;-76
2024/01/15 10:00:24;;;;;;;6.47;4.40;;;1.20;76.30;;;;;;5082825;28;20189;-76
2024/01/15 10:02:51;;;;;;;6.57;3.90;;;1.20;76.90;;;;;;5091257;28;20216;-76
2024/01/15 10:05:18;;;;;;;6.07;3.90;;;1.20;75.80;;;;;;5084095;28;20217;-76
2024/01/15 10:07:48;;;;;;;6.30;4.00;;;1.40;74.10;;;;;;5080667;28;20219;-76
2024/01/15 10:10:15;;;;;;;5.83;3.93;;;1.50;70.60;;;;;;5080523;28;20216;-76
2024/01/15 10:12:43;;;;;;;7.90;4.47;;;1.50;72.90;;;;;;5081518;28;20204;-76
2024/01/15 10:15:11;;;;;;;6.27;3.93;;;1.50;73.00;;;;;;5078598;28;20296;-77
2024/01/15 10:17:39;;;;;;;5.90;3.87;;;1.60;70.60;;;;;;5087199;28;20231;-75
2024/01/15 10:20:10;;;;;;;7.13;3.70;;;1.60;71.60;;;;;;5078694;28;20213;-76
2024/01/15 10:22:37;;;;;;;5.30;3.60;;;1.60;68.70;;;;;;5088043;28;20196;-76
2024/01/15 10:25:06;;;;;;;5.53;3.80;;;1.50;66.10;;;;;;5086349;28;20287;-76
2024/01/15 10:27:33;;;;;;;6.33;3.80;;;1.40;68.70;;;;;;5086627;28;20205;-76
2024/01/15 10:30:02;;;;;;;6.20;4.03;;;1.20;70.90;;;;;;5084139;28;20216;-76
2024/01/15 10:32:29;;;;;;;5.57;3.43;;;1.30;69.80;;;;;;5074850;28;20235;-76
2024/01/15 10:34:56;;;;;;;5.03;3.33;;;1.30;70.00;;;;;;5084238;28;20193;-76
2024/01/15 10:37:25;;;;;;;5.93;3.80;;;1.20;68.70;;;;;;5068859;28;20204;-76
2024/01/15 10:39:52;;;;;;;5.50;3.77;;;1.30;68.90;;;;;;5081761;28;20216;-76
2024/01/15 10:42:27;;;;;;;6.13;3.53;;;1.40;68.00;;;;;;5081003;28;20200;-76
2024/01/15 10:44:54;;;;;;;4.47;2.93;;;1.40;69.20;;;;;;5084553;28;20589;-75
2024/01/15 10:47:22;;;;;;;4.13;3.07;;;1.60;66.20;;;;;;5086145;28;20211;-78
2024/01/15 10:49:49;;;;;;;5.00;3.03;;;1.60;66.10;;;;;;5085527;28;20212;-75
2024/01/15 10:52:16;;;;;;;4.77;3.13;;;1.70;66.20;;;;;;5080718;28;20205;-77
2024/01/15 10:54:44;;;;;;;4.33;2.87;;;1.80;63.70;;;;;;5084339;28;20196;-77
2024/01/15 10:57:26;;;;;;;4.00;2.97;;;1.80;62.10;;;;;;5077247;28;20205;-78
2024/01/15 11:00:08;;;;;;;5.13;3.00;;;2.00;59.30;;;;;;5090491;28;20196;-76
2024/01/15 11:02:37;;;;;;;5.03;3.27;;;2.00;58.20;;;;;;5081293;28;20189;-77
2024/01/15 11:05:04;;;;;;;4.23;3.00;;;2.00;59.00;;;;;;5087970;28;20796;-77
2024/01/15 11:07:31;;;;;;;4.57;3.27;;;2.00;59.50;;;;;;5079532;28;20197;-77
2024/01/15 11:09:58;;;;;;;5.10;3.20;;;2.10;59.50;;;;;;5082444;28;20201;-78
2024/01/15 11:12:26;;;;;;;4.00;2.83;;;2.10;59.50;;;;;;5087920;28;20200;-77
2024/01/15 11:15:05;;;;;;;5.53;3.43;;;2.10;59.50;;;;;;5085083;28;20204;-77
2024/01/15 11:18:00;;;;;;;4.80;3.00;;;2.10;59.90;;;;;;5083371;28;20254;-77
2024/01/15 11:20:26;;;;;;;4.00;2.80;;;2.10;60.80;;;;;;5085134;28;20194;-78
2024/01/15 11:22:53;;;;;;;5.37;3.10;;;2.20;61.20;;;;;;5083898;28;20561;-77
2024/01/15 11:25:20;;;;;;;4.97;3.07;;;2.10;60.60;;;;;;5082278;28;20242;-77
2024/01/15 11:27:51;;;;;;;4.83;2.90;;;2.10;60.50;;;;;;5084715;28;20708;-75
2024/01/15 11:30:20;;;;;;;5.00;3.17;;;2.20;59.10;;;;;;5084765;28;20244;-78
2024/01/15 11:32:47;;;;;;;4.03;2.60;;;2.30;59.00;;;;;;5074422;28;20205;-77
2024/01/15 11:35:15;;;;;;;5.57;2.80;;;2.30;58.40;;;;;;5076031;28;20563;-78
2024/01/15 11:38:01;;;;;;;5.50;2.90;;;2.30;57.20;;;;;;5078398;28;20198;-77
2024/01/15 11:40:38;;;;;;;3.67;2.77;;;2.40;58.70;;;;;;5080102;28;20205;-79
2024/01/15 11:43:05;;;;;;;4.17;3.23;;;2.50;57.40;;;;;;5083628;28;20232;-79
2024/01/15 11:45:34;;;;;;;6.13;3.90;;;2.50;57.50;;;;;;5079637;28;20234;-78
2024/01/15 11:48:12;;;;;;;5.43;2.80;;;2.30;57.40;;;;;;5080751;28;20200;-77
2024/01/15 11:50:43;;;;;;;5.47;3.63;;;2.20;59.20;;;;;;5077713;28;20469;-78
2024/01/15 11:53:17;;;;;;;3.67;2.60;;;2.30;66.90;;;;;;5078908;28;20620;-78
2024/01/15 11:55:46;;;;;;;5.33;3.07;;;2.60;55.50;;;;;;5080901;28;20193;-77
2024/01/15 11:58:13;;;;;;;3.83;2.70;;;2.30;58.40;;;;;;5081382;28;20219;-78
2024/01/15 12:00:48;;;;;;;7.00;3.77;;;2.10;58.30;;;;;;5082441;28;20197;-77
2024/01/15 12:03:15;;;;;;;4.30;2.90;;;2.30;64.60;;;;;;5079211;28;20188;-77
2024/01/15 12:05:42;;;;;;;4.73;2.93;;;2.40;59.20;;;;;;5075258;28;20217;-77
2024/01/15 12:08:10;;;;;;;5.30;3.13;;;2.20;59.00;;;;;;5080428;28;20216;-78
2024/01/15 12:10:39;;;;;;;3.77;2.87;;;2.10;62.10;;;;;;5081455;28;20197;-77
2024/01/15 12:13:11;;;;;;;3.87;2.70;;;2.30;57.70;;;;;;5087675;28;20192;-77
2024/01/15 12:15:40;;;;;;;3.63;2.43;;;2.50;57.40;;;;;;5087294;28;20208;-77
2024/01/15 12:18:33;;;;;;;4.60;2.50;;;2.40;57.80;;;;;;5084328;28;20266;-77
2024/01/15 12:20:59;;;;;;;4.07;2.53;;;2.10;58.80;;;;;;5078686;28;20204;-78
2024/01/15 12:23:27;;;;;;;3.33;2.53;;;1.90;61.80;;;;;;5083133;28;20199;-77
2024/01/15 12:25:54;;;;;;;3.83;2.80;;;1.80;64.30;;;;;;5089372;28;20719;-77
2024/01/15 12:28:21;;;;;;;3.87;2.77;;;1.70;66.20;;;;;;5084632;28;20227;-77
2024/01/15 12:30:50;;;;;;;3.90;2.50;;;1.60;66.10;;;;;;5081462;28;20201;-77
2024/01/15 12:33:19;;;;;;;4.90;2.50;;;1.60;66.10;;;;;;5081810;28;20269;-77
2024/01/15 12:35:46;;;;;;;5.67;2.67;;;1.60;66.20;;;;;;5077198;28;20262;-77
2024/01/15 12:38:13;;;;;;;3.03;2.17;;;1.60;66.20;;;;;;5080788;28;20308;-76
2024/01/15 12:40:40;;;;;;;3.23;2.40;;;1.50;68.20;;;;;;5075621;28;20703;-76
2024/01/15 12:43:07;;;;;;;3.17;2.60;;;1.50;67.30;;;;;;5083419;28;20573;-77
2024/01/15 12:45:35;;;;;;;3.43;2.40;;;1.60;69.70;;;;;;5079606;28;20246;-77
2024/01/15 12:48:03;;;;;;;4.20;2.70;;;1.60;68.30;;;;;;5079536;28;20204;-77
2024/01/15 12:50:33;;;;;;;3.33;2.17;;;1.60;69.40;;;;;;5081215;28;20212;-77